sensor_id;sensor_type;location;lat;lon;timestamp;P1;durP1;ratioP1;P2;durP2;ratioP2
1475;SDS011;730;48.870;12.542;2023-02-15T00:01:50;30.25;;;15.70;;
1475;SDS011;730;48.870;12.542;2023-02-15T00:04:18;27.00;;;15.07;;
1475;SDS011;730;48.870;12.542;2023-02-15T00:06:46;20.60;;;13.43;;
1475;SDS011;730;48.870;12.542;2023-02-15T00:09:12;24.10;;;14.52;;
1475;SDS011;730;48.870;12.542;2023-02-15T00:11:38;25.85;;;14.82;;
1475;SDS011;730;48.870;12.542;2023-02-15T00:14:20;24.45;;;13.68;;
1475;SDS011;730;48.870;12.542;2023-02-15T00:16:49;31.30;;;15.40;;
1475;SDS011;730;48.870;12.542;2023-02-15T00:19:16;23.02;;;12.68;;
1475;SDS011;730;48.870;12.542;2023-02-15T00:21:44;21.50;;;13.18;;
1475;SDS011;730;48.870;12.542;2023-02-15T00:24:12;24.83;;;15.25;;
1475;SDS011;730;48.870;12.542;2023-02-15T00:26:41;27.58;;;15.30;;
1475;SDS011;730;48.870;12.542;2023-02-15T00:29:08;22.27;;;14.07;;
1475;SDS011;730;48.870;12.542;2023-02-15T00:31:35;22.50;;;14.93;;
1475;SDS011;730;48.870;12.542;2023-02-15T00:36:38;26.08;;;15.35;;
1475;SDS011;730;48.870;12.542;2023-02-15T00:39:05;22.65;;;11.68;;
1475;SDS011;730;48.870;12.542;2023-02-15T00:41:38;23.08;;;14.85;;
1475;SDS011;730;48.870;12.542;2023-02-15T00:44:05;22.65;;;12.57;;
1475;SDS011;730;48.870;12.542;2023-02-15T00:46:31;22.75;;;13.40;;
1475;SDS011;730;48.870;12.542;2023-02-15T00:48:58;20.73;;;13.38;;
1475;SDS011;730;48.870;12.542;2023-02-15T00:51:24;18.48;;;11.40;;
1475;SDS011;730;48.870;12.542;2023-02-15T00:53:50;20.00;;;12.23;;
1475;SDS011;730;48.870;12.542;2023-02-15T00:56:16;20.73;;;12.32;;
1475;SDS011;730;48.870;12.542;2023-02-15T00:58:43;22.80;;;14.00;;
1475;SDS011;730;48.870;12.542;2023-02-15T01:01:10;19.67;;;13.07;;
1475;SDS011;730;48.870;12.542;2023-02-15T01:03:39;23.70;;;13.80;;
1475;SDS011;730;48.870;12.542;2023-02-15T01:06:07;28.60;;;16.30;;
1475;SDS011;730;48.870;12.542;2023-02-15T01:08:33;19.52;;;13.25;;
1475;SDS011;730;48.870;12.542;2023-02-15T01:11:09;24.42;;;13.90;;
1475;SDS011;730;48.870;12.542;2023-02-15T01:13:37;31.38;;;14.77;;
1475;SDS011;730;48.870;12.542;2023-02-15T01:16:03;23.60;;;13.75;;
1475;SDS011;730;48.870;12.542;2023-02-15T01:18:30;21.55;;;12.90;;
1475;SDS011;730;48.870;12.542;2023-02-15T01:20:56;23.80;;;14.13;;
1475;SDS011;730;48.870;12.542;2023-02-15T01:23:22;24.52;;;12.75;;
1475;SDS011;730;48.870;12.542;2023-02-15T01:25:48;19.67;;;13.27;;
1475;SDS011;730;48.870;12.542;2023-02-15T01:28:15;26.00;;;14.52;;
1475;SDS011;730;48.870;12.542;2023-02-15T01:30:41;21.33;;;12.10;;
1475;SDS011;730;48.870;12.542;2023-02-15T01:33:07;22.50;;;12.55;;
1475;SDS011;730;48.870;12.542;2023-02-15T01:35:36;26.17;;;13.05;;
1475;SDS011;730;48.870;12.542;2023-02-15T01:38:02;20.67;;;13.45;;
1475;SDS011;730;48.870;12.542;2023-02-15T01:40:28;26.17;;;13.48;;
1475;SDS011;730;48.870;12.542;2023-02-15T01:42:55;20.42;;;11.95;;
1475;SDS011;730;48.870;12.542;2023-02-15T01:45:29;27.42;;;14.95;;
1475;SDS011;730;48.870;12.542;2023-02-15T01:48:01;22.48;;;11.90;;
1475;SDS011;730;48.870;12.542;2023-02-15T01:50:29;19.35;;;11.50;;
1475;SDS011;730;48.870;12.542;2023-02-15T01:58:30;19.60;;;11.52;;
1475;SDS011;730;48.870;12.542;2023-02-15T02:00:59;20.13;;;12.75;;
1475;SDS011;730;48.870;12.542;2023-02-15T02:03:30;18.67;;;10.65;;
1475;SDS011;730;48.870;12.542;2023-02-15T02:06:20;17.73;;;11.02;;
1475;SDS011;730;48.870;12.542;2023-02-15T02:08:46;24.17;;;12.93;;
1475;SDS011;730;48.870;12.542;2023-02-15T02:11:14;20.33;;;12.02;;
1475;SDS011;730;48.870;12.542;2023-02-15T02:13:41;23.10;;;13.48;;
1475;SDS011;730;48.870;12.542;2023-02-15T02:18:54;23.38;;;13.13;;
1475;SDS011;730;48.870;12.542;2023-02-15T02:32:27;21.30;;;11.57;;
1475;SDS011;730;48.870;12.542;2023-02-15T02:35:38;20.45;;;12.00;;
1475;SDS011;730;48.870;12.542;2023-02-15T02:38:32;25.80;;;14.48;;
1475;SDS011;730;48.870;12.542;2023-02-15T02:43:51;22.23;;;12.98;;
1475;SDS011;730;48.870;12.542;2023-02-15T02:48:51;20.17;;;11.30;;
1475;SDS011;730;48.870;12.542;2023-02-15T02:51:18;20.88;;;12.57;;
1475;SDS011;730;48.870;12.542;2023-02-15T02:53:49;21.77;;;11.20;;
1475;SDS011;730;48.870;12.542;2023-02-15T02:56:23;17.33;;;11.43;;
1475;SDS011;730;48.870;12.542;2023-02-15T02:59:17;21.42;;;13.85;;
1475;SDS011;730;48.870;12.542;2023-02-15T03:04:20;24.45;;;13.13;;
1475;SDS011;730;48.870;12.542;2023-02-15T03:06:57;20.42;;;11.75;;
1475;SDS011;730;48.870;12.542;2023-02-15T03:12:16;20.60;;;11.73;;
1475;SDS011;730;48.870;12.542;2023-02-15T03:14:55;22.60;;;12.05;;
1475;SDS011;730;48.870;12.542;2023-02-15T03:17:26;17.45;;;12.65;;
1475;SDS011;730;48.870;12.542;2023-02-15T03:19:57;23.20;;;12.27;;
1475;SDS011;730;48.870;12.542;2023-02-15T03:22:35;15.30;;;10.25;;
1475;SDS011;730;48.870;12.542;2023-02-15T03:25:13;18.98;;;11.35;;
1475;SDS011;730;48.870;12.542;2023-02-15T03:27:47;21.75;;;12.38;;
1475;SDS011;730;48.870;12.542;2023-02-15T03:30:17;18.20;;;10.63;;
1475;SDS011;730;48.870;12.542;2023-02-15T03:32:46;21.58;;;11.63;;
1475;SDS011;730;48.870;12.542;2023-02-15T03:35:14;21.45;;;12.57;;
1475;SDS011;730;48.870;12.542;2023-02-15T03:37:41;16.52;;;11.95;;
1475;SDS011;730;48.870;12.542;2023-02-15T03:40:23;19.55;;;12.93;;
1475;SDS011;730;48.870;12.542;2023-02-15T03:43:24;22.35;;;13.30;;
1475;SDS011;730;48.870;12.542;2023-02-15T03:45:55;24.15;;;12.88;;
1475;SDS011;730;48.870;12.542;2023-02-15T03:48:38;26.23;;;14.55;;
1475;SDS011;730;48.870;12.542;2023-02-15T03:51:12;21.40;;;12.60;;
1475;SDS011;730;48.870;12.542;2023-02-15T03:54:04;20.88;;;11.63;;
1475;SDS011;730;48.870;12.542;2023-02-15T03:57:00;21.58;;;11.75;;
1475;SDS011;730;48.870;12.542;2023-02-15T03:59:46;18.90;;;12.23;;
1475;SDS011;730;48.870;12.542;2023-02-15T04:02:34;20.08;;;11.80;;
1475;SDS011;730;48.870;12.542;2023-02-15T04:05:06;20.30;;;12.05;;
1475;SDS011;730;48.870;12.542;2023-02-15T04:07:32;19.85;;;10.80;;
1475;SDS011;730;48.870;12.542;2023-02-15T04:09:59;20.95;;;11.93;;
1475;SDS011;730;48.870;12.542;2023-02-15T04:12:43;18.65;;;10.77;;
1475;SDS011;730;48.870;12.542;2023-02-15T04:15:11;22.65;;;13.60;;
1475;SDS011;730;48.870;12.542;2023-02-15T04:17:56;19.40;;;12.00;;
1475;SDS011;730;48.870;12.542;2023-02-15T04:20:22;20.30;;;12.30;;
1475;SDS011;730;48.870;12.542;2023-02-15T04:23:07;19.80;;;11.13;;
1475;SDS011;730;48.870;12.542;2023-02-15T04:25:52;20.80;;;10.10;;
1475;SDS011;730;48.870;12.542;2023-02-15T04:28:18;17.70;;;10.80;;
1475;SDS011;730;48.870;12.542;2023-02-15T04:30:44;21.02;;;12.77;;
1475;SDS011;730;48.870;12.542;2023-02-15T04:33:11;22.70;;;12.70;;
1475;SDS011;730;48.870;12.542;2023-02-15T04:35:37;20.42;;;12.55;;
1475;SDS011;730;48.870;12.542;2023-02-15T04:38:03;22.73;;;13.77;;
1475;SDS011;730;48.870;12.542;2023-02-15T04:40:29;19.63;;;11.65;;
1475;SDS011;730;48.870;12.542;2023-02-15T04:42:55;20.10;;;12.32;;
1475;SDS011;730;48.870;12.542;2023-02-15T04:45:21;25.42;;;13.00;;
1475;SDS011;730;48.870;12.542;2023-02-15T04:47:47;27.58;;;12.63;;
1475;SDS011;730;48.870;12.542;2023-02-15T04:50:14;17.90;;;10.73;;
1475;SDS011;730;48.870;12.542;2023-02-15T04:52:40;19.20;;;10.65;;
1475;SDS011;730;48.870;12.542;2023-02-15T04:55:06;19.30;;;11.43;;
1475;SDS011;730;48.870;12.542;2023-02-15T04:57:32;21.63;;;12.60;;
1475;SDS011;730;48.870;12.542;2023-02-15T04:59:58;22.50;;;12.05;;
1475;SDS011;730;48.870;12.542;2023-02-15T05:02:24;18.00;;;10.45;;
1475;SDS011;730;48.870;12.542;2023-02-15T05:04:50;16.67;;;10.85;;
1475;SDS011;730;48.870;12.542;2023-02-15T05:07:16;17.83;;;10.60;;
1475;SDS011;730;48.870;12.542;2023-02-15T05:09:43;19.63;;;11.38;;
1475;SDS011;730;48.870;12.542;2023-02-15T05:12:09;19.58;;;12.48;;
1475;SDS011;730;48.870;12.542;2023-02-15T05:14:35;22.80;;;12.65;;
1475;SDS011;730;48.870;12.542;2023-02-15T05:17:01;21.13;;;12.20;;
1475;SDS011;730;48.870;12.542;2023-02-15T05:19:28;20.42;;;11.25;;
1475;SDS011;730;48.870;12.542;2023-02-15T05:21:54;19.50;;;11.00;;
1475;SDS011;730;48.870;12.542;2023-02-15T05:24:20;18.02;;;11.70;;
1475;SDS011;730;48.870;12.542;2023-02-15T05:27:05;22.85;;;12.98;;
1475;SDS011;730;48.870;12.542;2023-02-15T05:29:50;22.05;;;11.55;;
1475;SDS011;730;48.870;12.542;2023-02-15T05:32:16;23.30;;;14.18;;
1475;SDS011;730;48.870;12.542;2023-02-15T05:34:42;21.73;;;12.48;;
1475;SDS011;730;48.870;12.542;2023-02-15T05:37:08;19.75;;;11.63;;
1475;SDS011;730;48.870;12.542;2023-02-15T05:39:34;22.50;;;14.15;;
1475;SDS011;730;48.870;12.542;2023-02-15T05:42:00;19.35;;;10.90;;
1475;SDS011;730;48.870;12.542;2023-02-15T05:44:51;22.13;;;12.45;;
1475;SDS011;730;48.870;12.542;2023-02-15T05:47:17;22.23;;;11.80;;
1475;SDS011;730;48.870;12.542;2023-02-15T05:49:43;19.88;;;10.60;;
1475;SDS011;730;48.870;12.542;2023-02-15T05:52:09;23.08;;;13.88;;
1475;SDS011;730;48.870;12.542;2023-02-15T05:54:37;20.42;;;12.82;;
1475;SDS011;730;48.870;12.542;2023-02-15T05:57:03;23.40;;;13.00;;
1475;SDS011;730;48.870;12.542;2023-02-15T05:59:29;22.20;;;12.18;;
1475;SDS011;730;48.870;12.542;2023-02-15T06:01:58;16.52;;;11.30;;
1475;SDS011;730;48.870;12.542;2023-02-15T06:04:24;20.30;;;12.48;;
1475;SDS011;730;48.870;12.542;2023-02-15T06:06:50;17.25;;;11.57;;
1475;SDS011;730;48.870;12.542;2023-02-15T06:09:16;19.95;;;12.50;;
1475;SDS011;730;48.870;12.542;2023-02-15T06:11:44;22.67;;;15.27;;
1475;SDS011;730;48.870;12.542;2023-02-15T06:14:11;22.75;;;13.45;;
1475;SDS011;730;48.870;12.542;2023-02-15T06:16:37;19.10;;;12.52;;
1475;SDS011;730;48.870;12.542;2023-02-15T06:19:03;22.13;;;13.93;;
1475;SDS011;730;48.870;12.542;2023-02-15T06:21:29;18.35;;;12.73;;
1475;SDS011;730;48.870;12.542;2023-02-15T06:23:56;21.17;;;14.18;;
1475;SDS011;730;48.870;12.542;2023-02-15T06:26:23;20.30;;;11.85;;
1475;SDS011;730;48.870;12.542;2023-02-15T06:28:49;20.63;;;12.25;;
1475;SDS011;730;48.870;12.542;2023-02-15T06:31:15;17.42;;;10.93;;
1475;SDS011;730;48.870;12.542;2023-02-15T06:33:41;23.20;;;13.93;;
1475;SDS011;730;48.870;12.542;2023-02-15T06:36:07;25.17;;;13.38;;
1475;SDS011;730;48.870;12.542;2023-02-15T06:38:35;20.55;;;13.40;;
1475;SDS011;730;48.870;12.542;2023-02-15T06:41:01;18.20;;;12.27;;
1475;SDS011;730;48.870;12.542;2023-02-15T06:43:27;18.23;;;11.60;;
1475;SDS011;730;48.870;12.542;2023-02-15T06:45:53;20.63;;;13.18;;
1475;SDS011;730;48.870;12.542;2023-02-15T06:48:20;17.38;;;12.77;;
1475;SDS011;730;48.870;12.542;2023-02-15T06:50:49;20.83;;;11.98;;
1475;SDS011;730;48.870;12.542;2023-02-15T06:53:15;21.40;;;11.52;;
1475;SDS011;730;48.870;12.542;2023-02-15T06:55:43;17.67;;;11.88;;
1475;SDS011;730;48.870;12.542;2023-02-15T06:58:09;20.25;;;12.70;;
1475;SDS011;730;48.870;12.542;2023-02-15T07:00:35;17.08;;;11.23;;
1475;SDS011;730;48.870;12.542;2023-02-15T07:03:01;18.90;;;12.63;;
1475;SDS011;730;48.870;12.542;2023-02-15T07:05:28;22.55;;;11.75;;
1475;SDS011;730;48.870;12.542;2023-02-15T07:07:58;20.02;;;12.65;;
1475;SDS011;730;48.870;12.542;2023-02-15T07:10:25;16.05;;;12.48;;
1475;SDS011;730;48.870;12.542;2023-02-15T07:12:51;24.17;;;14.50;;
1475;SDS011;730;48.870;12.542;2023-02-15T07:15:18;18.92;;;11.88;;
1475;SDS011;730;48.870;12.542;2023-02-15T07:17:48;18.15;;;11.75;;
1475;SDS011;730;48.870;12.542;2023-02-15T07:20:17;17.40;;;12.18;;
1475;SDS011;730;48.870;12.542;2023-02-15T07:22:45;22.77;;;13.68;;
1475;SDS011;730;48.870;12.542;2023-02-15T07:25:12;19.88;;;12.20;;
1475;SDS011;730;48.870;12.542;2023-02-15T07:27:38;22.27;;;12.88;;
1475;SDS011;730;48.870;12.542;2023-02-15T07:30:06;18.15;;;12.02;;
1475;SDS011;730;48.870;12.542;2023-02-15T07:32:33;18.00;;;12.10;;
1475;SDS011;730;48.870;12.542;2023-02-15T07:34:59;18.85;;;13.57;;
1475;SDS011;730;48.870;12.542;2023-02-15T07:37:26;23.60;;;13.82;;
1475;SDS011;730;48.870;12.542;2023-02-15T07:39:53;15.18;;;10.85;;
1475;SDS011;730;48.870;12.542;2023-02-15T07:42:19;16.27;;;11.25;;
1475;SDS011;730;48.870;12.542;2023-02-15T07:44:46;18.05;;;12.07;;
1475;SDS011;730;48.870;12.542;2023-02-15T07:47:13;16.83;;;10.90;;
1475;SDS011;730;48.870;12.542;2023-02-15T07:49:39;17.35;;;12.05;;
1475;SDS011;730;48.870;12.542;2023-02-15T07:52:05;17.80;;;12.63;;
1475;SDS011;730;48.870;12.542;2023-02-15T07:54:31;20.42;;;13.50;;
1475;SDS011;730;48.870;12.542;2023-02-15T07:56:57;18.55;;;11.80;;
1475;SDS011;730;48.870;12.542;2023-02-15T07:59:23;15.70;;;11.15;;
1475;SDS011;730;48.870;12.542;2023-02-15T08:01:50;14.27;;;11.20;;
1475;SDS011;730;48.870;12.542;2023-02-15T08:04:18;16.20;;;9.63;;
1475;SDS011;730;48.870;12.542;2023-02-15T08:06:44;17.67;;;12.30;;
1475;SDS011;730;48.870;12.542;2023-02-15T08:09:11;20.05;;;12.45;;
1475;SDS011;730;48.870;12.542;2023-02-15T08:11:38;14.73;;;10.85;;
1475;SDS011;730;48.870;12.542;2023-02-15T08:14:07;17.23;;;11.40;;
1475;SDS011;730;48.870;12.542;2023-02-15T08:16:43;19.50;;;12.45;;
1475;SDS011;730;48.870;12.542;2023-02-15T08:24:23;20.88;;;11.35;;
1475;SDS011;730;48.870;12.542;2023-02-15T08:26:51;17.42;;;11.27;;
1475;SDS011;730;48.870;12.542;2023-02-15T08:29:18;17.52;;;11.60;;
1475;SDS011;730;48.870;12.542;2023-02-15T08:31:47;16.05;;;11.63;;
1475;SDS011;730;48.870;12.542;2023-02-15T08:34:16;18.95;;;11.60;;
1475;SDS011;730;48.870;12.542;2023-02-15T08:36:43;23.08;;;13.32;;
1475;SDS011;730;48.870;12.542;2023-02-15T08:39:13;19.60;;;11.50;;
1475;SDS011;730;48.870;12.542;2023-02-15T08:41:43;17.40;;;12.57;;
1475;SDS011;730;48.870;12.542;2023-02-15T08:44:11;22.27;;;12.20;;
1475;SDS011;730;48.870;12.542;2023-02-15T08:46:39;23.45;;;11.85;;
1475;SDS011;730;48.870;12.542;2023-02-15T08:49:07;20.80;;;11.73;;
1475;SDS011;730;48.870;12.542;2023-02-15T08:51:34;18.75;;;10.95;;
1475;SDS011;730;48.870;12.542;2023-02-15T08:54:03;18.63;;;11.82;;
1475;SDS011;730;48.870;12.542;2023-02-15T08:56:34;17.55;;;11.15;;
1475;SDS011;730;48.870;12.542;2023-02-15T08:59:02;22.77;;;11.10;;
1475;SDS011;730;48.870;12.542;2023-02-15T09:01:30;16.20;;;11.68;;
1475;SDS011;730;48.870;12.542;2023-02-15T09:03:59;18.23;;;11.90;;
1475;SDS011;730;48.870;12.542;2023-02-15T09:06:27;16.73;;;10.32;;
1475;SDS011;730;48.870;12.542;2023-02-15T09:08:54;15.35;;;10.30;;
1475;SDS011;730;48.870;12.542;2023-02-15T09:11:26;16.17;;;10.70;;
1475;SDS011;730;48.870;12.542;2023-02-15T09:13:55;21.15;;;11.55;;
1475;SDS011;730;48.870;12.542;2023-02-15T09:16:23;18.60;;;12.30;;
1475;SDS011;730;48.870;12.542;2023-02-15T09:18:50;19.38;;;11.43;;
1475;SDS011;730;48.870;12.542;2023-02-15T09:21:19;21.98;;;10.98;;
1475;SDS011;730;48.870;12.542;2023-02-15T09:23:48;15.25;;;10.43;;
1475;SDS011;730;48.870;12.542;2023-02-15T09:26:18;19.05;;;12.98;;
1475;SDS011;730;48.870;12.542;2023-02-15T09:28:46;18.95;;;10.55;;
1475;SDS011;730;48.870;12.542;2023-02-15T09:31:15;15.93;;;10.55;;
1475;SDS011;730;48.870;12.542;2023-02-15T09:33:44;17.60;;;11.23;;
1475;SDS011;730;48.870;12.542;2023-02-15T09:36:18;19.27;;;11.85;;
1475;SDS011;730;48.870;12.542;2023-02-15T09:38:45;17.10;;;11.57;;
1475;SDS011;730;48.870;12.542;2023-02-15T09:57:37;19.17;;;12.10;;
1475;SDS011;730;48.870;12.542;2023-02-15T10:00:19;17.90;;;11.52;;
1475;SDS011;730;48.870;12.542;2023-02-15T10:03:10;19.83;;;11.75;;
1475;SDS011;730;48.870;12.542;2023-02-15T10:28:18;20.20;;;12.18;;
1475;SDS011;730;48.870;12.542;2023-02-15T10:30:53;20.17;;;12.30;;
1475;SDS011;730;48.870;12.542;2023-02-15T10:33:43;18.35;;;11.38;;
1475;SDS011;730;48.870;12.542;2023-02-15T10:50:06;19.17;;;12.00;;
1475;SDS011;730;48.870;12.542;2023-02-15T10:55:41;17.65;;;11.82;;
1475;SDS011;730;48.870;12.542;2023-02-15T11:06:43;18.20;;;11.82;;
1475;SDS011;730;48.870;12.542;2023-02-15T11:09:16;16.15;;;11.38;;
1475;SDS011;730;48.870;12.542;2023-02-15T11:11:49;19.30;;;12.52;;
1475;SDS011;730;48.870;12.542;2023-02-15T11:17:14;17.35;;;10.60;;
1475;SDS011;730;48.870;12.542;2023-02-15T11:22:36;19.90;;;11.75;;
1475;SDS011;730;48.870;12.542;2023-02-15T11:25:05;14.85;;;9.02;;
1475;SDS011;730;48.870;12.542;2023-02-15T11:27:42;16.08;;;11.75;;
1475;SDS011;730;48.870;12.542;2023-02-15T11:30:20;15.75;;;10.43;;
1475;SDS011;730;48.870;12.542;2023-02-15T11:32:52;17.15;;;12.40;;
1475;SDS011;730;48.870;12.542;2023-02-15T11:35:26;23.35;;;12.30;;
1475;SDS011;730;48.870;12.542;2023-02-15T11:38:06;20.73;;;12.13;;
1475;SDS011;730;48.870;12.542;2023-02-15T11:40:47;16.10;;;11.05;;
1475;SDS011;730;48.870;12.542;2023-02-15T11:46:10;19.15;;;12.20;;
1475;SDS011;730;48.870;12.542;2023-02-15T11:48:38;18.02;;;10.98;;
1475;SDS011;730;48.870;12.542;2023-02-15T11:51:05;18.40;;;11.77;;
1475;SDS011;730;48.870;12.542;2023-02-15T11:53:37;21.30;;;13.05;;
1475;SDS011;730;48.870;12.542;2023-02-15T11:56:04;19.05;;;12.25;;
1475;SDS011;730;48.870;12.542;2023-02-15T11:58:41;21.02;;;13.18;;
1475;SDS011;730;48.870;12.542;2023-02-15T12:01:33;22.05;;;12.18;;
1475;SDS011;730;48.870;12.542;2023-02-15T12:04:07;22.70;;;14.60;;
1475;SDS011;730;48.870;12.542;2023-02-15T12:06:46;21.38;;;14.23;;
1475;SDS011;730;48.870;12.542;2023-02-15T12:14:53;23.05;;;14.32;;
1475;SDS011;730;48.870;12.542;2023-02-15T12:17:25;19.77;;;12.40;;
1475;SDS011;730;48.870;12.542;2023-02-15T12:19:55;25.42;;;15.20;;
1475;SDS011;730;48.870;12.542;2023-02-15T12:22:26;20.77;;;12.20;;
1475;SDS011;730;48.870;12.542;2023-02-15T12:24:56;20.60;;;12.75;;
1475;SDS011;730;48.870;12.542;2023-02-15T12:27:32;19.65;;;13.18;;
1475;SDS011;730;48.870;12.542;2023-02-15T12:30:01;22.15;;;14.93;;
1475;SDS011;730;48.870;12.542;2023-02-15T12:35:31;20.50;;;13.90;;
1475;SDS011;730;48.870;12.542;2023-02-15T12:38:20;22.08;;;14.43;;
1475;SDS011;730;48.870;12.542;2023-02-15T12:41:02;22.08;;;13.68;;
1475;SDS011;730;48.870;12.542;2023-02-15T12:43:37;22.42;;;16.00;;
1475;SDS011;730;48.870;12.542;2023-02-15T12:46:14;25.63;;;15.05;;
1475;SDS011;730;48.870;12.542;2023-02-15T12:49:06;25.85;;;16.23;;
1475;SDS011;730;48.870;12.542;2023-02-15T12:51:50;21.98;;;14.18;;
1475;SDS011;730;48.870;12.542;2023-02-15T12:54:37;27.63;;;18.15;;
1475;SDS011;730;48.870;12.542;2023-02-15T12:57:17;23.30;;;15.65;;
1475;SDS011;730;48.870;12.542;2023-02-15T13:02:47;22.73;;;14.95;;
1475;SDS011;730;48.870;12.542;2023-02-15T13:05:37;24.15;;;13.82;;
1475;SDS011;730;48.870;12.542;2023-02-15T13:13:28;21.02;;;12.98;;
1475;SDS011;730;48.870;12.542;2023-02-15T13:15:58;21.70;;;13.38;;
1475;SDS011;730;48.870;12.542;2023-02-15T13:18:32;23.38;;;15.73;;
1475;SDS011;730;48.870;12.542;2023-02-15T13:21:15;22.85;;;14.93;;
1475;SDS011;730;48.870;12.542;2023-02-15T13:23:52;21.27;;;14.13;;
1475;SDS011;730;48.870;12.542;2023-02-15T13:26:26;21.00;;;14.43;;
1475;SDS011;730;48.870;12.542;2023-02-15T13:28:57;23.55;;;13.80;;
1475;SDS011;730;48.870;12.542;2023-02-15T13:31:37;20.10;;;12.25;;
1475;SDS011;730;48.870;12.542;2023-02-15T13:34:10;16.83;;;12.50;;
1475;SDS011;730;48.870;12.542;2023-02-15T13:39:40;20.98;;;13.35;;
1475;SDS011;730;48.870;12.542;2023-02-15T13:42:52;17.45;;;11.07;;
1475;SDS011;730;48.870;12.542;2023-02-15T13:45:33;19.77;;;13.30;;
1475;SDS011;730;48.870;12.542;2023-02-15T13:54:05;20.70;;;12.30;;
1475;SDS011;730;48.870;12.542;2023-02-15T13:56:48;20.58;;;12.70;;
1475;SDS011;730;48.870;12.542;2023-02-15T14:02:22;19.85;;;12.48;;
1475;SDS011;730;48.870;12.542;2023-02-15T14:08:38;19.52;;;12.98;;
1475;SDS011;730;48.870;12.542;2023-02-15T14:11:52;16.77;;;11.63;;
1475;SDS011;730;48.870;12.542;2023-02-15T14:14:39;18.63;;;13.07;;
1475;SDS011;730;48.870;12.542;2023-02-15T14:20:22;22.10;;;14.45;;
1475;SDS011;730;48.870;12.542;2023-02-15T14:28:27;21.92;;;13.68;;
1475;SDS011;730;48.870;12.542;2023-02-15T14:31:01;21.85;;;14.15;;
1475;SDS011;730;48.870;12.542;2023-02-15T14:33:34;16.30;;;13.05;;
1475;SDS011;730;48.870;12.542;2023-02-15T14:36:12;18.08;;;12.90;;
1475;SDS011;730;48.870;12.542;2023-02-15T14:41:55;22.13;;;14.57;;
1475;SDS011;730;48.870;12.542;2023-02-15T14:44:36;18.02;;;13.70;;
1475;SDS011;730;48.870;12.542;2023-02-15T14:47:16;18.58;;;14.02;;
1475;SDS011;730;48.870;12.542;2023-02-15T14:49:48;21.15;;;14.52;;
1475;SDS011;730;48.870;12.542;2023-02-15T14:52:14;17.30;;;12.82;;
1475;SDS011;730;48.870;12.542;2023-02-15T15:04:38;22.55;;;14.85;;
1475;SDS011;730;48.870;12.542;2023-02-15T15:07:28;25.48;;;14.43;;
1475;SDS011;730;48.870;12.542;2023-02-15T15:15:13;24.58;;;15.02;;
1475;SDS011;730;48.870;12.542;2023-02-15T15:26:24;27.70;;;15.90;;
1475;SDS011;730;48.870;12.542;2023-02-15T15:34:18;20.40;;;14.07;;
1475;SDS011;730;48.870;12.542;2023-02-15T15:42:49;21.95;;;14.27;;
1475;SDS011;730;48.870;12.542;2023-02-15T15:48:33;25.95;;;13.95;;
1475;SDS011;730;48.870;12.542;2023-02-15T15:51:04;21.50;;;14.77;;
1475;SDS011;730;48.870;12.542;2023-02-15T15:53:46;23.10;;;14.05;;
1475;SDS011;730;48.870;12.542;2023-02-15T15:56:21;18.90;;;14.13;;
1475;SDS011;730;48.870;12.542;2023-02-15T15:59:02;22.02;;;14.80;;
1475;SDS011;730;48.870;12.542;2023-02-15T16:01:39;19.95;;;13.23;;
1475;SDS011;730;48.870;12.542;2023-02-15T16:04:23;25.00;;;13.73;;
1475;SDS011;730;48.870;12.542;2023-02-15T16:10:02;21.98;;;13.40;;
1475;SDS011;730;48.870;12.542;2023-02-15T16:12:31;20.83;;;15.48;;
1475;SDS011;730;48.870;12.542;2023-02-15T16:15:34;22.00;;;14.90;;
1475;SDS011;730;48.870;12.542;2023-02-15T16:17:53;19.13;;;13.15;;
1475;SDS011;730;48.870;12.542;2023-02-15T16:20:26;24.13;;;15.15;;
1475;SDS011;730;48.870;12.542;2023-02-15T16:28:47;27.30;;;18.73;;
1475;SDS011;730;48.870;12.542;2023-02-15T16:31:17;22.85;;;17.17;;
1475;SDS011;730;48.870;12.542;2023-02-15T16:33:44;22.90;;;18.33;;
1475;SDS011;730;48.870;12.542;2023-02-15T16:36:11;24.15;;;16.38;;
1475;SDS011;730;48.870;12.542;2023-02-15T16:41:27;20.73;;;13.53;;
1475;SDS011;730;48.870;12.542;2023-02-15T16:43:58;23.85;;;16.27;;
1475;SDS011;730;48.870;12.542;2023-02-15T16:46:35;26.70;;;17.55;;
1475;SDS011;730;48.870;12.542;2023-02-15T16:49:07;25.27;;;16.20;;
1475;SDS011;730;48.870;12.542;2023-02-15T16:51:42;18.90;;;13.98;;
1475;SDS011;730;48.870;12.542;2023-02-15T16:54:14;25.38;;;15.65;;
1475;SDS011;730;48.870;12.542;2023-02-15T16:56:45;25.00;;;16.00;;
1475;SDS011;730;48.870;12.542;2023-02-15T17:01:56;21.85;;;15.27;;
1475;SDS011;730;48.870;12.542;2023-02-15T17:04:28;23.23;;;15.85;;
1475;SDS011;730;48.870;12.542;2023-02-15T17:07:06;24.13;;;16.55;;
1475;SDS011;730;48.870;12.542;2023-02-15T17:09:50;24.13;;;15.40;;
1475;SDS011;730;48.870;12.542;2023-02-15T17:15:32;21.05;;;15.57;;
1475;SDS011;730;48.870;12.542;2023-02-15T17:18:21;26.73;;;17.05;;
1475;SDS011;730;48.870;12.542;2023-02-15T17:20:48;20.85;;;14.77;;
1475;SDS011;730;48.870;12.542;2023-02-15T17:28:51;18.90;;;15.75;;
1475;SDS011;730;48.870;12.542;2023-02-15T17:31:21;21.27;;;14.00;;
1475;SDS011;730;48.870;12.542;2023-02-15T17:33:56;29.65;;;18.08;;
1475;SDS011;730;48.870;12.542;2023-02-15T17:36:24;25.23;;;18.15;;
1475;SDS011;730;48.870;12.542;2023-02-15T17:41:23;28.80;;;17.65;;
1475;SDS011;730;48.870;12.542;2023-02-15T17:43:50;19.73;;;13.98;;
1475;SDS011;730;48.870;12.542;2023-02-15T17:46:16;24.85;;;16.80;;
1475;SDS011;730;48.870;12.542;2023-02-15T17:48:47;21.27;;;14.80;;
1475;SDS011;730;48.870;12.542;2023-02-15T17:51:15;20.45;;;13.95;;
1475;SDS011;730;48.870;12.542;2023-02-15T17:53:42;28.05;;;16.67;;
1475;SDS011;730;48.870;12.542;2023-02-15T17:56:27;30.98;;;18.40;;
1475;SDS011;730;48.870;12.542;2023-02-15T17:58:53;23.08;;;15.60;;
1475;SDS011;730;48.870;12.542;2023-02-15T18:01:19;23.40;;;16.85;;
1475;SDS011;730;48.870;12.542;2023-02-15T18:04:07;26.67;;;17.58;;
1475;SDS011;730;48.870;12.542;2023-02-15T18:06:55;25.08;;;16.27;;
1475;SDS011;730;48.870;12.542;2023-02-15T18:09:40;28.10;;;17.40;;
1475;SDS011;730;48.870;12.542;2023-02-15T18:14:55;26.92;;;20.00;;
1475;SDS011;730;48.870;12.542;2023-02-15T18:17:42;22.92;;;15.57;;
1475;SDS011;730;48.870;12.542;2023-02-15T18:20:21;21.10;;;15.38;;
1475;SDS011;730;48.870;12.542;2023-02-15T18:22:53;25.48;;;17.92;;
1475;SDS011;730;48.870;12.542;2023-02-15T18:25:20;28.00;;;18.63;;
1475;SDS011;730;48.870;12.542;2023-02-15T18:27:48;26.67;;;16.27;;
1475;SDS011;730;48.870;12.542;2023-02-15T18:30:15;26.83;;;16.67;;
1475;SDS011;730;48.870;12.542;2023-02-15T18:32:44;28.15;;;18.73;;
1475;SDS011;730;48.870;12.542;2023-02-15T18:35:15;24.20;;;15.88;;
1475;SDS011;730;48.870;12.542;2023-02-15T18:37:43;25.48;;;16.70;;
1475;SDS011;730;48.870;12.542;2023-02-15T18:40:13;20.52;;;14.32;;
1475;SDS011;730;48.870;12.542;2023-02-15T18:42:41;26.40;;;19.20;;
1475;SDS011;730;48.870;12.542;2023-02-15T18:47:42;22.60;;;16.80;;
1475;SDS011;730;48.870;12.542;2023-02-15T18:50:09;24.95;;;16.15;;
1475;SDS011;730;48.870;12.542;2023-02-15T18:52:36;25.02;;;17.40;;
1475;SDS011;730;48.870;12.542;2023-02-15T18:55:03;32.17;;;17.88;;
1475;SDS011;730;48.870;12.542;2023-02-15T18:57:40;23.48;;;15.63;;
1475;SDS011;730;48.870;12.542;2023-02-15T19:00:13;28.80;;;17.35;;